Time;durP1;ratioP1;P1;durP2;ratioP2;P2;SDS_P1;SDS_P2;PMS_P1;PMS_P2;Temp;Humidity;BMP_temperature;BMP_pressure;BME280_temperature;BME280_humidity;BME280_pressure;Samples;Min_cycle;Max_cycle;Signal;HPM_P1;HPM_P2
2023/04/10 00:01:20;;;;;;;35.53;29.83;;;;;;;;;;6199470;23;20392;-84
2023/04/10 00:03:46;;;;;;;41.43;32.73;;;;;;;;;;6199161;23;20404;-84
2023/04/10 00:06:12;;;;;;;40.67;31.90;;;;;;;;;;6226418;23;20337;-84
2023/04/10 00:08:38;;;;;;;36.80;30.90;;;;;;;;;;6223533;23;20362;-84
2023/04/10 00:11:04;;;;;;;40.35;31.58;;;;;;;;;;6195815;23;20354;-83
2023/04/10 00:13:30;;;;;;;41.65;32.78;;;;;;;;;;6221255;23;20441;-84
2023/04/10 00:15:57;;;;;;;41.17;32.45;;;;;;;;;;6194100;23;20382;-84
2023/04/10 00:18:23;;;;;;;47.05;35.42;;;;;;;;;;6194116;23;20346;-84
2023/04/10 00:20:49;;;;;;;50.50;37.13;;;;;;;;;;6194055;23;20398;-84
2023/04/10 00:23:15;;;;;;;49.42;37.38;;;;;;;;;;6221092;23;20338;-83
2023/04/10 00:25:41;;;;;;;46.28;36.30;;;;;;;;;;6193716;23;20334;-84
2023/04/10 00:28:07;;;;;;;50.83;37.00;;;;;;;;;;6220266;23;20385;-85
2023/04/10 00:30:33;;;;;;;50.35;38.15;;;;;;;;;;6220594;23;20358;-84
2023/04/10 00:33:00;;;;;;;53.20;39.38;;;;;;;;;;6221111;23;20362;-84
2023/04/10 00:35:26;;;;;;;51.95;38.83;;;;;;;;;;6220483;23;20350;-83
2023/04/10 00:37:53;;;;;;;56.17;41.22;;;;;;;;;;6193374;23;20357;-85
2023/04/10 00:40:19;;;;;;;54.83;40.88;;;;;;;;;;6220463;23;20334;-83
2023/04/10 00:42:45;;;;;;;49.63;38.22;;;;;;;;;;6194112;23;20369;-83
2023/04/10 00:45:11;;;;;;;47.10;37.67;;;;;;;;;;6194758;23;20338;-84
2023/04/10 00:47:37;;;;;;;46.78;36.15;;;;;;;;;;6194581;23;20338;-85
2023/04/10 00:50:04;;;;;;;40.57;33.47;;;;;;;;;;6193616;23;20422;-84
2023/04/10 00:52:31;;;;;;;45.10;34.85;;;;;;;;;;6194079;23;20433;-84
2023/04/10 00:54:58;;;;;;;45.33;34.65;;;;;;;;;;6194579;23;20818;-84
2023/04/10 00:57:25;;;;;;;46.85;34.83;;;;;;;;;;6222120;23;20346;-84
2023/04/10 00:59:52;;;;;;;53.45;37.78;;;;;;;;;;6195965;23;20342;-85
2023/04/10 01:02:18;;;;;;;57.60;41.60;;;;;;;;;;6208670;23;20345;-84
2023/04/10 01:04:45;;;;;;;50.60;38.50;;;;;;;;;;6209604;23;20395;-83
2023/04/10 01:07:16;;;;;;;55.13;40.85;;;;;;;;;;6203714;23;20842;-84
2023/04/10 01:09:53;;;;;;;53.10;40.33;;;;;;;;;;6193969;23;20342;-84
2023/04/10 01:12:29;;;;;;;55.03;40.08;;;;;;;;;;6193940;23;20393;-83
2023/04/10 01:15:04;;;;;;;56.70;43.78;;;;;;;;;;6195160;23;20376;-84
2023/04/10 01:17:45;;;;;;;62.08;46.53;;;;;;;;;;6194995;23;20373;-84
2023/04/10 01:20:22;;;;;;;64.03;46.17;;;;;;;;;;6194980;23;20350;-84
2023/04/10 01:22:49;;;;;;;61.80;44.25;;;;;;;;;;6195789;23;20338;-84
2023/04/10 01:25:35;;;;;;;60.78;44.30;;;;;;;;;;6221244;23;20369;-85
2023/04/10 01:28:01;;;;;;;54.50;41.83;;;;;;;;;;6194050;23;20396;-84
2023/04/10 01:30:27;;;;;;;59.15;44.05;;;;;;;;;;6220234;23;20781;-85
2023/04/10 01:32:55;;;;;;;52.87;41.37;;;;;;;;;;6194039;23;20350;-85
2023/04/10 01:35:21;;;;;;;54.03;40.85;;;;;;;;;;6220992;23;20384;-85
2023/04/10 01:37:48;;;;;;;59.20;44.45;;;;;;;;;;6221170;23;20338;-85
2023/04/10 01:40:18;;;;;;;67.33;48.63;;;1.60;99.90;;;;;;6221577;23;20338;-84
2023/04/10 01:42:49;;;;;;;60.67;45.22;;;1.80;99.90;;;;;;6194697;23;20414;-85
2023/04/10 01:45:19;;;;;;;63.15;45.95;;;1.50;99.90;;;;;;6194311;23;20350;-85
2023/04/10 01:47:46;;;;;;;60.90;45.95;;;1.70;99.90;;;;;;6194585;23;20852;-85
2023/04/10 01:50:15;;;;;;;56.17;43.42;;;1.80;99.90;;;;;;6194429;23;20350;-84
2023/04/10 01:52:46;;;;;;;54.80;41.78;;;1.30;99.90;;;;;;6193694;23;20369;-85
2023/04/10 01:55:17;;;;;;;54.20;41.10;;;2.10;99.90;;;;;;6193944;23;20370;-84
2023/04/10 01:57:43;;;;;;;46.38;36.10;;;1.60;99.90;;;;;;6193728;23;20393;-85
2023/04/10 02:00:09;;;;;;;48.37;37.57;;;2.00;99.90;;;;;;6197523;23;20821;-85
2023/04/10 02:02:36;;;;;;;48.42;37.38;;;1.70;99.90;;;;;;6197106;23;20358;-87
2023/04/10 02:05:02;;;;;;;54.45;40.67;;;1.90;99.90;;;;;;6196948;23;20342;-87
2023/04/10 02:07:46;;;;;;;57.67;41.50;;;1.90;99.90;;;;;;6199378;23;20381;-86
2023/04/10 02:10:20;;;;;;;55.53;42.50;;;1.50;99.90;;;;;;6198337;23;20354;-86
2023/04/10 02:12:52;;;;;;;57.83;44.45;;;1.40;99.90;;;;;;6197531;23;20357;-86
2023/04/10 02:15:21;;;;;;;52.42;41.22;;;1.40;99.90;;;;;;6198326;23;20512;-85
2023/04/10 02:17:48;;;;;;;54.55;41.92;;;1.40;99.90;;;;;;6198583;23;20354;-86
2023/04/10 02:20:15;;;;;;;49.40;39.17;;;1.50;99.90;;;;;;6199088;23;20357;-86
2023/04/10 02:22:45;;;;;;;46.37;37.43;;;1.40;99.90;;;;;;6223350;23;20358;-86
2023/04/10 02:25:11;;;;;;;51.78;39.08;;;1.80;99.90;;;;;;6224860;23;20350;-86
2023/04/10 02:27:37;;;;;;;46.47;36.87;;;1.20;99.90;;;;;;6198536;23;20351;-87
2023/04/10 02:30:04;;;;;;;46.88;36.28;;;1.50;99.90;;;;;;6227481;23;20377;-85
2023/04/10 02:32:31;;;;;;;52.90;40.20;;;1.40;99.90;;;;;;6200375;23;20433;-84
2023/04/10 02:34:57;;;;;;;57.70;42.97;;;1.10;99.90;;;;;;6205423;23;20369;-86
2023/04/10 02:37:23;;;;;;;65.17;47.20;;;1.70;99.90;;;;;;6200453;23;20432;-85
2023/04/10 02:39:49;;;;;;;60.63;46.43;;;1.00;99.90;;;;;;6199481;23;20354;-84
2023/04/10 02:42:15;;;;;;;55.40;42.07;;;1.60;99.90;;;;;;6199526;23;20357;-85
2023/04/10 02:44:41;;;;;;;57.00;43.65;;;1.30;99.90;;;;;;6199505;23;20361;-85
2023/04/10 02:47:07;;;;;;;52.05;39.53;;;1.10;99.90;;;;;;6198796;23;20407;-84
2023/04/10 02:49:36;;;;;;;52.05;39.95;;;0.90;99.90;;;;;;6199437;23;20350;-87
2023/04/10 02:52:02;;;;;;;48.65;38.35;;;1.00;99.90;;;;;;6200524;23;20350;-86
2023/04/10 02:54:29;;;;;;;47.47;37.83;;;1.10;99.90;;;;;;6225543;23;20342;-86
2023/04/10 02:57:00;;;;;;;46.45;37.80;;;1.20;99.90;;;;;;6198683;23;20675;-87
2023/04/10 02:59:26;;;;;;;50.33;39.17;;;1.00;99.90;;;;;;6224552;23;20390;-86
2023/04/10 03:01:52;;;;;;;48.33;38.53;;;1.30;99.90;;;;;;6198417;23;20373;-85
2023/04/10 03:04:18;;;;;;;53.00;41.10;;;1.00;99.90;;;;;;6198003;23;20895;-83
2023/04/10 03:06:44;;;;;;;48.50;38.28;;;1.10;99.90;;;;;;6198269;23;20345;-84
2023/04/10 03:09:10;;;;;;;47.20;36.65;;;1.60;99.90;;;;;;6198589;23;20381;-87
2023/04/10 03:11:36;;;;;;;44.95;34.67;;;1.40;99.90;;;;;;6198521;23;20709;-86
2023/04/10 03:14:02;;;;;;;41.78;34.67;;;1.50;99.90;;;;;;6225553;23;20341;-85
2023/04/10 03:16:28;;;;;;;40.88;33.90;;;1.20;99.90;;;;;;6198088;23;20374;-86
2023/04/10 03:18:55;;;;;;;41.40;34.42;;;1.20;99.90;;;;;;6197999;23;20357;-85
2023/04/10 03:21:21;;;;;;;42.90;34.42;;;1.20;99.90;;;;;;6199050;23;20346;-84
2023/04/10 03:23:47;;;;;;;51.20;38.75;;;1.20;99.90;;;;;;6199278;23;20400;-87
2023/04/10 03:26:13;;;;;;;52.92;40.03;;;1.00;99.90;;;;;;6198389;23;20368;-84
2023/04/10 03:28:40;;;;;;;52.80;41.20;;;0.90;99.90;;;;;;6199227;23;20731;-85
2023/04/10 03:31:06;;;;;;;48.90;40.47;;;1.30;99.90;;;;;;6198874;23;20395;-85
2023/04/10 03:33:32;;;;;;;44.28;37.83;;;0.70;99.90;;;;;;6198909;23;20647;-85
2023/04/10 03:36:00;;;;;;;44.35;36.80;;;0.80;99.90;;;;;;6198588;23;20426;-85
2023/04/10 03:38:29;;;;;;;44.22;36.63;;;1.40;99.90;;;;;;6198149;23;20405;-86
2023/04/10 03:40:55;;;;;;;40.05;33.60;;;1.10;99.90;;;;;;6198087;23;20805;-85
2023/04/10 03:43:20;;;;;;;42.60;34.23;;;0.90;99.90;;;;;;6201188;23;20442;-85
2023/04/10 03:45:46;;;;;;;39.03;33.63;;;0.70;99.90;;;;;;6206374;23;20389;-86
2023/04/10 03:48:15;;;;;;;43.23;35.63;;;1.20;99.90;;;;;;6207267;23;20376;-85
2023/04/10 03:50:46;;;;;;;37.47;32.30;;;1.00;99.90;;;;;;6207275;23;20354;-86
2023/04/10 03:53:12;;;;;;;38.13;32.05;;;0.90;99.90;;;;;;6205468;23;20373;-86
2023/04/10 03:55:41;;;;;;;41.58;34.15;;;1.50;99.90;;;;;;6206861;23;20802;-85
2023/04/10 03:58:09;;;;;;;39.95;35.03;;;1.10;99.90;;;;;;6234228;23;20341;-86
2023/04/10 04:00:44;;;;;;;39.13;33.42;;;1.00;99.90;;;;;;6208201;23;20342;-86
2023/04/10 04:03:20;;;;;;;38.72;32.80;;;0.90;99.90;;;;;;6207665;23;20357;-86
2023/04/10 04:05:48;;;;;;;43.77;36.33;;;1.10;99.90;;;;;;6205017;23;20354;-85
2023/04/10 04:08:17;;;;;;;46.40;37.75;;;0.90;99.90;;;;;;6226645;23;20352;-86
2023/04/10 04:10:45;;;;;;;40.40;35.28;;;0.70;99.90;;;;;;6199793;23;20351;-83
2023/04/10 04:13:23;;;;;;;37.40;32.80;;;1.10;99.90;;;;;;6224735;23;20362;-86
2023/04/10 04:15:48;;;;;;;35.78;31.98;;;0.70;99.90;;;;;;6198732;23;20460;-87
2023/04/10 04:18:14;;;;;;;34.28;30.58;;;1.70;99.90;;;;;;6198526;23;20354;-87
2023/04/10 04:20:40;;;;;;;33.33;29.70;;;1.20;99.90;;;;;;6199512;23;20354;-86
2023/04/10 04:23:06;;;;;;;35.92;32.03;;;1.80;99.90;;;;;;6198674;23;20810;-85
2023/04/10 04:25:34;;;;;;;34.58;30.60;;;1.60;99.90;;;;;;6224604;23;20808;-86
2023/04/10 04:28:00;;;;;;;32.25;28.77;;;1.30;99.90;;;;;;6198158;23;20354;-86
2023/04/10 04:30:26;;;;;;;34.78;31.08;;;1.20;99.90;;;;;;6198835;23;20437;-86
2023/04/10 04:32:52;;;;;;;37.35;33.20;;;0.90;99.90;;;;;;6199784;23;20377;-86
2023/04/10 04:35:21;;;;;;;35.85;31.95;;;1.50;99.90;;;;;;6199712;23;20361;-85
2023/04/10 04:37:47;;;;;;;34.30;30.60;;;1.20;99.90;;;;;;6199521;23;20350;-86
2023/04/10 04:40:16;;;;;;;36.10;31.13;;;1.20;99.90;;;;;;6199095;23;20853;-85
2023/04/10 04:42:42;;;;;;;34.50;30.80;;;1.40;99.90;;;;;;6199595;23;20430;-86
2023/04/10 04:45:08;;;;;;;32.88;29.38;;;1.10;99.90;;;;;;6199112;23;20364;-86
2023/04/10 04:47:34;;;;;;;32.13;28.73;;;1.60;99.90;;;;;;6226147;23;20353;-86
2023/04/10 04:50:02;;;;;;;33.03;29.43;;;1.50;99.90;;;;;;6198601;23;20670;-86
2023/04/10 04:52:34;;;;;;;30.83;27.63;;;2.00;99.90;;;;;;6198517;23;20346;-84
2023/04/10 04:55:02;;;;;;;34.25;30.65;;;2.00;99.90;;;;;;6198694;23;20810;-86
2023/04/10 04:57:28;;;;;;;39.90;34.30;;;1.60;99.90;;;;;;6198952;23;20353;-86
2023/04/10 04:59:54;;;;;;;40.08;35.20;;;1.70;99.90;;;;;;6199400;23;20404;-85
2023/04/10 05:02:21;;;;;;;37.47;33.05;;;1.40;99.90;;;;;;6198735;23;20354;-85
2023/04/10 05:04:47;;;;;;;43.25;38.03;;;1.60;99.90;;;;;;6199934;23;20421;-86
2023/04/10 05:07:18;;;;;;;41.58;35.08;;;1.80;99.90;;;;;;6201476;23;20358;-87
2023/04/10 05:09:44;;;;;;;38.17;34.08;;;1.60;99.90;;;;;;6200708;23;20346;-87
2023/04/10 05:12:12;;;;;;;35.92;32.03;;;2.10;99.90;;;;;;6200762;23;20342;-86
2023/04/10 05:14:38;;;;;;;36.58;32.58;;;2.50;99.90;;;;;;6200147;23;20354;-86
2023/04/10 05:17:05;;;;;;;39.63;35.33;;;2.40;99.90;;;;;;6200288;23;20374;-84
2023/04/10 05:19:34;;;;;;;35.90;32.10;;;2.10;99.90;;;;;;6200011;23;20437;-87
2023/04/10 05:21:59;;;;;;;36.55;32.75;;;2.50;99.90;;;;;;6199893;23;20342;-86
2023/04/10 05:24:25;;;;;;;32.60;29.27;;;;;;;;;;6199628;23;20381;-84
2023/04/10 05:26:51;;;;;;;33.53;30.13;;;;;;;;;;6201893;23;20325;-85
2023/04/10 05:29:17;;;;;;;34.95;31.27;;;;;;;;;;6199032;23;20334;-85
2023/04/10 05:31:44;;;;;;;33.63;30.23;;;;;;;;;;6198389;23;20349;-85
2023/04/10 05:34:10;;;;;;;32.25;28.95;;;;;;;;;;6196891;23;20342;-87
2023/04/10 05:36:36;;;;;;;28.17;25.33;;;;;;;;;;6195955;23;20452;-88
2023/04/10 05:39:02;;;;;;;26.25;23.65;;;;;;;;;;6197707;23;20354;-85
2023/04/10 05:41:28;;;;;;;27.42;24.67;;;;;;;;;;6199797;23;20353;-86
2023/04/10 05:43:54;;;;;;;26.13;23.42;;;;;;;;;;6198069;23;20806;-87
2023/04/10 05:46:20;;;;;;;27.95;25.05;;;;;;;;;;6198640;23;20368;-87
2023/04/10 05:48:46;;;;;;;27.83;23.35;;;;;;;;;;6224557;23;20342;-87
2023/04/10 05:51:12;;;;;;;26.52;23.88;;;;;;;;;;6224132;23;20362;-89
2023/04/10 05:53:38;;;;;;;26.98;24.20;;;;;;;;;;6196947;23;20353;-87
2023/04/10 05:56:05;;;;;;;25.73;23.13;;;;;;;;;;6197496;23;20428;-86
2023/04/10 05:58:31;;;;;;;26.95;24.05;;;;;;;;;;6197386;23;20349;-86
2023/04/10 06:00:57;;;;;;;25.13;22.50;;;;;;;;;;6199395;23;20414;-84
2023/04/10 06:03:23;;;;;;;25.83;22.98;;;;;;;;;;6201948;23;20357;-85
2023/04/10 06:05:49;;;;;;;24.02;21.48;;;;;;;;;;6228613;23;20342;-86
2023/04/10 06:08:15;;;;;;;25.23;22.52;;;;;;;;;;6209749;23;20342;-85
2023/04/10 06:10:41;;;;;;;29.80;25.77;;;;;;;;;;6211555;23;20338;-84
2023/04/10 06:13:08;;;;;;;29.83;26.55;;;;;;;;;;6214253;23;20832;-85
2023/04/10 06:15:34;;;;;;;30.10;26.90;;;;;;;;;;6197933;23;20362;-85
2023/04/10 06:18:00;;;;;;;29.63;26.50;;;;;;;;;;6198126;23;20422;-86
2023/04/10 06:20:26;;;;;;;30.00;26.80;;;;;;;;;;6200254;23;20342;-85
2023/04/10 06:22:53;;;;;;;30.80;27.50;;;;;;;;;;6199615;23;20405;-85
2023/04/10 06:25:27;;;;;;;29.63;26.05;;;;;;;;;;6199327;23;20398;-84
2023/04/10 06:27:53;;;;;;;27.05;23.52;;;;;;;;;;6198777;23;20651;-84
2023/04/10 06:30:19;;;;;;;27.67;23.92;;;;;;;;;;6200246;23;20813;-86
2023/04/10 06:32:45;;;;;;;25.25;22.27;;;;;;;;;;6199525;23;20350;-85
2023/04/10 06:35:11;;;;;;;22.85;20.33;;;;;;;;;;6198859;23;20369;-86
2023/04/10 06:37:37;;;;;;;25.13;22.48;;;;;;;;;;6199520;23;20353;-85
2023/04/10 06:40:04;;;;;;;23.52;21.02;;;;;;;;;;6199952;23;20421;-85
2023/04/10 06:42:31;;;;;;;24.67;20.95;;;;;;;;;;6199826;23;20373;-86
2023/04/10 06:44:57;;;;;;;25.95;22.83;;;;;;;;;;6198781;23;20435;-87
2023/04/10 06:47:26;;;;;;;27.38;22.35;;;;;;;;;;6198346;23;20389;-86
2023/04/10 06:49:55;;;;;;;26.35;22.10;;;11.00;99.90;;;;;;6198519;23;20421;-86
2023/04/10 06:52:20;;;;;;;27.17;22.67;;;11.30;99.90;;;;;;6200005;23;20342;-86
2023/04/10 06:54:46;;;;;;;23.45;20.88;;;11.70;99.90;;;;;;6201653;23;20683;-86
2023/04/10 06:57:15;;;;;;;25.83;20.30;;;;;;;;;;6201084;23;20350;-86
2023/04/10 06:59:41;;;;;;;26.58;22.60;;;14.20;99.90;;;;;;6230092;23;20334;-87
2023/04/10 07:02:07;;;;;;;30.23;23.27;;;14.60;99.90;;;;;;6200582;23;20354;-87
2023/04/10 07:04:32;;;;;;;32.30;26.00;;;15.60;99.90;;;;;;6201115;23;20665;-87
2023/04/10 07:06:58;;;;;;;28.88;23.83;;;15.20;99.90;;;;;;6201537;23;20349;-87
2023/04/10 07:09:28;;;;;;;29.15;24.35;;;14.40;99.90;;;;;;6200699;23;20354;-88
2023/04/10 07:11:54;;;;;;;29.13;24.00;;;15.40;99.90;;;;;;6200311;23;20689;-87
2023/04/10 07:14:20;;;;;;;29.23;23.73;;;15.90;99.90;;;;;;6201329;23;20350;-87
2023/04/10 07:16:46;;;;;;;27.48;22.95;;;16.50;99.90;;;;;;6200650;23;20368;-87
2023/04/10 07:19:12;;;;;;;31.73;24.30;;;17.40;99.90;;;;;;6200323;23;20357;-87
2023/04/10 07:21:37;;;;;;;29.90;24.10;;;17.70;99.90;;;;;;6199666;23;20352;-87
2023/04/10 07:24:03;;;;;;;32.13;26.53;;;18.60;99.90;;;;;;6199902;23;20409;-88
2023/04/10 07:26:29;;;;;;;30.15;24.75;;;18.30;99.90;;;;;;6200968;23;20801;-87
2023/04/10 07:28:55;;;;;;;32.20;26.13;;;18.50;99.90;;;;;;6200657;23;20350;-86
2023/04/10 07:31:21;;;;;;;34.70;29.08;;;18.90;99.90;;;;;;6203503;23;20698;-87
2023/04/10 07:33:49;;;;;;;30.87;26.37;;;;;;;;;;6203120;23;20829;-87
2023/04/10 07:36:15;;;;;;;34.77;28.63;;;;;;;;;;6229301;23;20373;-87
2023/04/10 07:38:42;;;;;;;34.45;28.52;;;;;;;;;;6202189;23;20858;-86
2023/04/10 07:41:09;;;;;;;33.50;27.45;;;;;;;;;;6202585;23;20369;-87
2023/04/10 07:43:35;;;;;;;32.47;27.30;;;;;;;;;;6228335;23;20346;-87
2023/04/10 07:46:01;;;;;;;33.33;27.30;;;;;;;;;;6209259;23;20400;-84
2023/04/10 07:48:27;;;;;;;33.87;27.83;;;;;;;;;;6215375;23;20409;-85
2023/04/10 07:50:53;;;;;;;33.90;27.35;;;;;;;;;;6215719;23;20334;-85
2023/04/10 07:53:19;;;;;;;32.08;27.35;;;;;;;;;;6215290;22;20357;-85
2023/04/10 07:55:49;;;;;;;34.90;28.00;;;;;;;;;;6215477;23;20366;-85
2023/04/10 07:58:17;;;;;;;32.58;27.17;;;;;;;;;;6210090;23;20357;-86
2023/04/10 08:00:43;;;;;;;33.80;26.97;;;18.40;99.90;;;;;;6230066;23;20334;-87
2023/04/10 08:03:11;;;;;;;30.58;25.85;;;18.30;99.90;;;;;;6204497;23;20440;-85
2023/04/10 08:05:36;;;;;;;28.58;24.52;;;19.00;99.90;;;;;;6202840;23;20342;-86
2023/04/10 08:08:02;;;;;;;31.13;24.53;;;19.70;99.90;;;;;;6202752;23;20385;-86
2023/04/10 08:10:28;;;;;;;29.08;24.35;;;20.30;99.90;;;;;;6203351;23;20650;-88
2023/04/10 08:12:54;;;;;;;32.42;26.15;;;20.40;99.90;;;;;;6202284;23;20346;-87
2023/04/10 08:15:20;;;;;;;30.27;24.77;;;20.40;99.90;;;;;;6204071;23;20390;-88
2023/04/10 08:17:46;;;;;;;30.30;25.05;;;19.90;99.90;;;;;;6201654;23;20374;-87
2023/04/10 08:20:12;;;;;;;29.07;24.23;;;19.90;99.90;;;;;;6201950;23;20433;-87
2023/04/10 08:22:37;;;;;;;25.80;22.05;;;20.60;99.90;;;;;;6201746;23;20355;-87
2023/04/10 08:25:04;;;;;;;26.60;22.70;;;21.20;99.90;;;;;;6200210;23;20357;-86
2023/04/10 08:27:30;;;;;;;25.42;20.42;;;21.00;99.90;;;;;;6199633;23;20372;-87
2023/04/10 08:29:56;;;;;;;24.23;20.77;;;21.50;99.90;;;;;;6198983;23;20369;-86
2023/04/10 08:32:22;;;;;;;25.75;21.73;;;21.20;99.90;;;;;;6200213;23;20342;-87
2023/04/10 08:34:48;;;;;;;24.60;21.87;;;21.10;99.90;;;;;;6199597;23;20354;-86
2023/04/10 08:37:14;;;;;;;25.05;21.40;;;21.10;99.90;;;;;;6200344;23;20346;-86
2023/04/10 08:39:40;;;;;;;23.92;20.73;;;21.00;99.90;;;;;;6199988;23;20364;-87
2023/04/10 08:42:07;;;;;;;25.02;20.85;;;21.20;99.90;;;;;;6227086;23;20346;-87
2023/04/10 08:44:34;;;;;;;24.45;21.25;;;20.60;99.90;;;;;;6227356;23;20354;-88
2023/04/10 08:47:01;;;;;;;25.38;21.02;;;19.80;99.90;;;;;;6199034;23;20342;-86
2023/04/10 08:50:06;;;;;;;23.48;20.17;;;19.70;99.90;;;;;;6227262;23;20420;-86
2023/04/10 08:52:36;;;;;;;26.15;21.45;;;20.20;99.90;;;;;;6050766;23;20362;-84
2023/04/10 08:55:06;;;;;;;24.63;20.35;;;19.90;99.90;;;;;;6203062;23;20350;-87
2023/04/10 08:57:32;;;;;;;22.67;20.23;;;20.30;99.90;;;;;;6198378;23;20408;-87
2023/04/10 08:59:59;;;;;;;24.77;21.70;;;19.90;99.90;;;;;;6227234;23;20429;-86
2023/04/10 09:02:24;;;;;;;26.42;22.52;;;18.90;99.90;;;;;;6200548;23;20347;-86
2023/04/10 09:04:53;;;;;;;25.50;22.05;;;17.90;99.90;;;;;;6202967;23;20475;-86
2023/04/10 09:07:23;;;;;;;27.55;21.88;;;18.50;99.90;;;;;;6203373;23;20396;-86
2023/04/10 09:09:49;;;;;;;24.45;20.63;;;19.70;99.90;;;;;;6229853;23;20361;-86
2023/04/10 09:12:16;;;;;;;25.92;21.35;;;20.00;99.90;;;;;;6203798;23;20343;-86
2023/04/10 09:14:41;;;;;;;24.88;20.92;;;20.80;99.90;;;;;;6200751;23;20350;-87
2023/04/10 09:17:27;;;;;;;28.25;22.73;;;20.40;99.90;;;;;;6203559;23;20362;-87
2023/04/10 09:19:54;;;;;;;24.23;20.17;;;;;;;;;;6201096;23;20666;-86
2023/04/10 09:22:30;;;;;;;24.25;19.70;;;;;;;;;;6227837;23;20334;-85
2023/04/10 09:24:58;;;;;;;24.92;19.65;;;;;;;;;;6200816;23;20354;-85
2023/04/10 09:27:30;;;;;;;26.55;20.63;;;;;;;;;;6201167;23;20338;-85
2023/04/10 09:29:57;;;;;;;22.40;19.45;;;;;;;;;;6203995;23;20354;-85
2023/04/10 09:32:42;;;;;;;22.48;18.48;;;;;;;;;;6200036;23;20406;-85
2023/04/10 09:35:09;;;;;;;23.47;19.20;;;;;;;;;;6199142;23;20816;-84
2023/04/10 09:37:36;;;;;;;22.10;18.40;;;;;;;;;;6200297;23;20389;-85
2023/04/10 09:40:02;;;;;;;17.38;15.50;;;;;;;;;;6227430;23;20413;-86
2023/04/10 09:42:38;;;;;;;21.20;17.33;;;;;;;;;;6200811;23;20349;-85
2023/04/10 09:45:05;;;;;;;20.75;16.77;;;;;;;;;;6228802;23;20338;-86
2023/04/10 09:47:33;;;;;;;18.23;14.50;;;;;;;;;;6204406;23;20381;-86
2023/04/10 09:49:59;;;;;;;18.67;14.65;;;;;;;;;;6226790;23;20330;-86
2023/04/10 09:52:26;;;;;;;19.67;15.77;;;;;;;;;;6229061;23;20337;-84
2023/04/10 09:54:53;;;;;;;19.73;17.00;;;;;;;;;;6203749;23;20413;-85
2023/04/10 09:57:19;;;;;;;17.92;14.30;;;;;;;;;;6205154;23;20354;-85
2023/04/10 09:59:48;;;;;;;15.53;13.10;;;;;;;;;;6203253;23;20449;-85
2023/04/10 10:02:14;;;;;;;12.02;10.50;;;;;;;;;;6230012;23;20338;-86
2023/04/10 10:04:42;;;;;;;11.65;9.75;;;;;;;;;;6201699;23;20868;-86
2023/04/10 10:07:08;;;;;;;14.70;11.60;;;;;;;;;;6206876;23;20361;-85
2023/04/10 10:09:36;;;;;;;11.32;10.10;;;;;;;;;;6202924;23;20377;-85
2023/04/10 10:12:03;;;;;;;14.50;10.43;;;;;;;;;;6204758;23;20356;-86
2023/04/10 10:14:31;;;;;;;12.77;10.60;;;;;;;;;;6204572;23;20350;-84
2023/04/10 10:17:00;;;;;;;14.43;11.77;;;;;;;;;;6205616;23;20384;-85
2023/04/10 10:19:30;;;;;;;26.30;12.25;;;;;;;;;;6207287;23;20346;-84
2023/04/10 10:21:59;;;;;;;12.05;9.98;;;;;;;;;;6205560;23;20732;-86
2023/04/10 10:24:25;;;;;;;12.43;10.82;;;;;;;;;;6202768;23;20765;-85
2023/04/10 10:26:54;;;;;;;11.50;10.30;;;;;;;;;;6229319;23;20401;-86
2023/04/10 10:29:23;;;;;;;10.77;9.27;;;;;;;;;;6231810;23;20338;-85
2023/04/10 10:31:49;;;;;;;12.60;9.90;;;;;;;;;;6203914;23;20678;-86
2023/04/10 10:34:16;;;;;;;14.60;10.50;;;;;;;;;;6205263;23;20357;-86
2023/04/10 10:36:42;;;;;;;13.60;9.93;;;;;;;;;;6231944;23;20373;-85
2023/04/10 10:39:23;;;;;;;11.52;10.30;;;19.60;95.40;;;;;;6203121;23;20666;-87
2023/04/10 10:41:53;;;;;;;11.93;9.93;;;19.40;97.20;;;;;;6204337;23;20361;-85
2023/04/10 10:44:36;;;;;;;9.93;8.93;;;19.60;96.40;;;;;;6205885;23;20358;-85
2023/04/10 10:47:21;;;;;;;19.10;10.45;;;19.70;96.70;;;;;;6206873;23;20436;-84
2023/04/10 10:49:59;;;;;;;9.90;8.77;;;20.10;95.80;;;;;;6206759;23;20364;-85
2023/04/10 10:52:48;;;;;;;10.88;8.70;;;20.30;95.90;;;;;;6206650;23;20380;-86
2023/04/10 10:55:35;;;;;;;13.10;9.75;;;20.80;96.10;;;;;;6205548;23;20436;-85
2023/04/10 10:58:08;;;;;;;11.48;10.07;;;20.30;96.10;;;;;;6204445;23;20365;-86
2023/04/10 11:00:50;;;;;;;12.75;9.70;;;19.90;96.80;;;;;;6204281;23;20364;-85
2023/04/10 11:03:15;;;;;;;13.57;11.85;;;19.90;97.10;;;;;;6231649;23;20338;-85
2023/04/10 11:06:02;;;;;;;12.30;9.70;;;19.40;97.70;;;;;;6234397;23;20368;-86
2023/04/10 11:08:44;;;;;;;12.97;9.77;;;19.90;97.90;;;;;;6206849;23;20354;-85
2023/04/10 11:11:22;;;;;;;11.52;10.32;;;20.00;97.60;;;;;;6236322;22;20357;-87
2023/04/10 11:13:57;;;;;;;12.05;10.70;;;19.60;98.50;;;;;;6241409;22;20396;-85
2023/04/10 11:42:20;;;;;;;13.20;11.45;;;17.20;99.40;;;;;;6220767;23;20900;-85
2023/04/10 11:44:45;;;;;;;11.38;10.02;;;17.30;99.90;;;;;;6205860;23;20358;-85
2023/04/10 11:47:12;;;;;;;12.68;10.98;;;17.00;99.90;;;;;;6205727;23;20419;-85
2023/04/10 11:49:37;;;;;;;11.80;10.50;;;17.20;99.90;;;;;;6205914;23;20358;-86
2023/04/10 11:52:03;;;;;;;12.73;10.57;;;17.40;99.90;;;;;;6230953;23;20346;-84
2023/04/10 11:54:30;;;;;;;13.17;10.00;;;17.00;99.80;;;;;;6201561;23;20396;-85
2023/04/10 11:57:03;;;;;;;12.07;10.77;;;17.20;99.90;;;;;;6198481;23;20474;-87
2023/04/10 11:59:31;;;;;;;13.48;10.48;;;17.30;99.90;;;;;;6197771;23;20399;-86
2023/04/10 12:02:13;;;;;;;12.82;11.00;;;16.90;99.90;;;;;;6225479;23;20366;-86
2023/04/10 12:04:39;;;;;;;12.95;10.85;;;16.80;99.90;;;;;;6199997;23;20677;-86
2023/04/10 12:07:05;;;;;;;11.73;9.60;;;17.20;99.90;;;;;;6201049;23;20377;-86
2023/04/10 12:09:30;;;;;;;10.98;9.70;;;17.50;99.90;;;;;;6199156;23;20377;-87
2023/04/10 12:12:04;;;;;;;14.83;11.33;;;17.50;99.90;;;;;;6198802;23;20358;-87
2023/04/10 12:14:35;;;;;;;11.07;9.98;;;17.00;99.90;;;;;;6200370;23;20386;-86
2023/04/10 12:17:02;;;;;;;11.57;10.27;;;16.80;99.90;;;;;;6227358;23;20459;-85
2023/04/10 12:19:28;;;;;;;11.73;10.48;;;17.00;99.90;;;;;;6199583;23;20362;-87
2023/04/10 12:21:56;;;;;;;11.80;10.20;;;16.90;99.90;;;;;;6226668;23;20356;-86
2023/04/10 12:24:46;;;;;;;11.85;9.48;;;16.90;99.90;;;;;;6199848;23;20901;-85
2023/04/10 12:27:25;;;;;;;11.13;9.48;;;16.90;99.90;;;;;;6200441;23;20350;-86
2023/04/10 12:29:53;;;;;;;11.07;9.88;;;17.20;99.90;;;;;;6200527;23;20417;-85
2023/04/10 12:32:19;;;;;;;11.33;10.13;;;17.60;99.90;;;;;;6227807;23;20346;-85
2023/04/10 12:34:57;;;;;;;11.87;10.43;;;17.50;99.90;;;;;;6228506;23;20373;-86
2023/04/10 12:37:24;;;;;;;12.30;10.60;;;17.60;99.90;;;;;;6231575;23;20357;-85
2023/04/10 12:39:50;;;;;;;17.33;11.32;;;17.80;99.90;;;;;;6211290;23;20358;-86
2023/04/10 12:42:25;;;;;;;13.47;11.23;;;17.90;99.90;;;;;;6210566;23;20368;-86
2023/04/10 12:44:55;;;;;;;12.57;10.80;;;17.60;99.90;;;;;;6237186;23;20367;-86
2023/04/10 12:47:22;;;;;;;12.53;11.23;;;17.40;99.80;;;;;;6209351;23;20369;-86
2023/04/10 12:50:06;;;;;;;11.88;10.68;;;17.10;99.90;;;;;;6236080;23;20342;-84
2023/04/10 12:52:33;;;;;;;12.00;10.80;;;17.20;99.90;;;;;;6208842;23;20350;-86
2023/04/10 12:55:10;;;;;;;12.18;10.32;;;17.30;99.90;;;;;;6233964;23;20358;-86
2023/04/10 12:57:35;;;;;;;20.38;12.15;;;17.20;99.90;;;;;;6207434;23;20358;-85
2023/04/10 13:00:02;;;;;;;13.10;11.63;;;17.40;99.90;;;;;;6228114;23;20361;-87
2023/04/10 13:02:28;;;;;;;11.85;10.30;;;17.50;99.90;;;;;;6199936;23;20354;-86
2023/04/10 13:04:55;;;;;;;12.37;10.07;;;17.80;99.90;;;;;;6199440;23;20393;-86
2023/04/10 13:07:21;;;;;;;13.85;10.65;;;17.70;99.90;;;;;;6227205;23;20635;-85
2023/04/10 13:09:46;;;;;;;13.00;10.43;;;17.30;99.90;;;;;;6229777;23;20361;-86
2023/04/10 13:12:12;;;;;;;12.90;11.07;;;17.20;99.90;;;;;;6200272;23;20379;-86
2023/04/10 13:14:38;;;;;;;12.15;10.55;;;17.20;99.90;;;;;;6225892;23;20421;-85
2023/04/10 13:17:03;;;;;;;12.60;10.70;;;17.40;99.90;;;;;;6198949;23;20377;-87
2023/04/10 13:19:29;;;;;;;12.27;10.43;;;17.50;99.90;;;;;;6199402;23;20474;-85
2023/04/10 13:21:55;;;;;;;14.93;9.67;;;17.50;99.90;;;;;;6226674;23;20350;-88
2023/04/10 13:24:21;;;;;;;11.18;9.40;;;17.60;99.90;;;;;;6200219;23;20357;-85
2023/04/10 13:26:46;;;;;;;11.38;9.20;;;18.00;99.90;;;;;;6227244;23;20364;-88
2023/04/10 13:29:12;;;;;;;13.07;10.30;;;17.90;99.90;;;;;;6199903;23;20378;-86
2023/04/10 13:31:38;;;;;;;11.15;9.57;;;17.70;99.90;;;;;;6226582;23;20420;-86
2023/04/10 13:34:03;;;;;;;12.37;9.40;;;17.60;99.90;;;;;;6225346;23;20828;-86
2023/04/10 13:36:30;;;;;;;11.03;9.30;;;17.50;99.90;;;;;;6225485;23;20374;-82
2023/04/10 13:38:55;;;;;;;28.55;11.30;;;17.70;99.90;;;;;;6198800;23;20353;-86